^^
Station Historical Data
 
Daily Summary for January 27, 2015 Units:  Metric    English   Both
« Previous Day
Next Day »
Daily Weekly Monthly Yearly Custom
  Current: High: Low: Average:
Temperature: 1.2 °C 2.6 °C -0.8 °C 0.9 °C
Dew Point: -0.3 °C 0.6 °C -1.5 °C -0.2 °C
Humidity: 90% 96% 86% 92%
Wind Speed: 2.4km/h 8.0km/h 0.0km/h 2.6km/h
Wind Gust: 11.3km/h 27.4km/h - -
WindWSW - - SW
Pressure: 1024.3 hPa 1025.3 hPa 1021.6 hPa -
Precipitation: 4.6 mm      
Historical Graphs
 
 
Tabular Data for January 27, 2015
Time Temperature Dew Point Pressure Wind Wind Speed Wind Gust Humidity Rainfall Rate (Hourly) solar Conditions
00:05 0.1 °C -0.6 °C 1021.9 hPa WSW 7.7 km/h 19.3 km/h 95% 0.0 mm 0 W/m2
00:10 0.1 °C -0.6 °C 1021.6 hPa SE 5.1 km/h 12.9 km/h 95% 0.0 mm 0 W/m2
00:15 0.2 °C -0.5 °C 1021.6 hPa SSW 6.4 km/h 20.9 km/h 95% 0.0 mm 0 W/m2
00:25 0.2 °C -0.5 °C 1021.6 hPa WSW 6.4 km/h 17.7 km/h 95% 0.0 mm 0 W/m2
00:35 0.2 °C -0.5 °C 1021.6 hPa WSW 6.3 km/h 16.1 km/h 95% 0.0 mm 0 W/m2
00:40 0.3 °C -0.4 °C 1021.6 hPa WSW 6.4 km/h 20.9 km/h 95% 0.0 mm 0 W/m2
00:45 0.3 °C -0.4 °C 1021.6 hPa West 7.6 km/h 19.3 km/h 95% 0.0 mm 0 W/m2
00:50 0.3 °C -0.4 °C 1021.6 hPa South 5.1 km/h 16.1 km/h 95% 0.0 mm 0 W/m2
00:55 0.3 °C -0.4 °C 1021.6 hPa SW 6.9 km/h 22.5 km/h 95% 0.0 mm 0 W/m2
01:00 0.3 °C -0.4 °C 1021.6 hPa SSW 8.0 km/h 22.5 km/h 95% 0.0 mm 0 W/m2
01:05 0.3 °C -0.4 °C 1021.6 hPa SSW 8.0 km/h 22.5 km/h 95% 0.0 mm 0 W/m2
01:10 0.3 °C -0.4 °C 1021.6 hPa West 7.2 km/h 20.9 km/h 95% 0.0 mm 0 W/m2
01:15 0.4 °C -0.3 °C 1021.6 hPa SW 5.6 km/h 14.5 km/h 95% 0.0 mm 0 W/m2
01:20 0.4 °C -0.3 °C 1021.6 hPa SSW 6.8 km/h 17.7 km/h 95% 0.0 mm 0 W/m2
01:25 0.4 °C -0.3 °C 1021.6 hPa WNW 6.6 km/h 16.1 km/h 95% 0.0 mm 0 W/m2
01:30 0.4 °C -0.3 °C 1021.6 hPa SSW 5.8 km/h 14.5 km/h 95% 0.0 mm 0 W/m2
01:35 0.4 °C -0.3 °C 1021.6 hPa South 6.3 km/h 27.4 km/h 95% 0.0 mm 0 W/m2
01:40 0.4 °C -0.3 °C 1021.6 hPa SSW 6.8 km/h 19.3 km/h 95% 0.0 mm 0 W/m2
01:45 0.4 °C -0.3 °C 1021.6 hPa SSW 6.8 km/h 19.3 km/h 95% 0.0 mm 0 W/m2
01:50 0.4 °C -0.3 °C 1021.6 hPa SW 5.8 km/h 11.3 km/h 95% 0.0 mm 0 W/m2
01:55 0.5 °C -0.2 °C 1021.6 hPa SW 5.5 km/h 14.5 km/h 95% 0.0 mm 0 W/m2
02:00 0.5 °C -0.2 °C 1021.9 hPa SSE 4.7 km/h 16.1 km/h 95% 0.0 mm 0 W/m2
02:05 0.5 °C -0.2 °C 1021.9 hPa SSW 5.8 km/h 14.5 km/h 95% 0.0 mm 0 W/m2
02:10 0.5 °C -0.2 °C 1021.9 hPa SSW 5.6 km/h 16.1 km/h 95% 0.0 mm 0 W/m2
02:15 0.5 °C -0.2 °C 1021.9 hPa SW 3.7 km/h 11.3 km/h 95% 0.0 mm 0 W/m2
02:20 0.6 °C -0.1 °C 1021.9 hPa WSW 5.1 km/h 12.9 km/h 95% 0.0 mm 0 W/m2
02:25 0.6 °C -0.1 °C 1022.2 hPa WSW 4.3 km/h 14.5 km/h 95% 0.0 mm 0 W/m2
02:30 0.6 °C -0.1 °C 1022.2 hPa WNW 5.3 km/h 14.5 km/h 95% 0.0 mm 0 W/m2
02:35 0.6 °C -0.1 °C 1022.2 hPa WNW 3.7 km/h 14.5 km/h 95% 0.0 mm 0 W/m2
02:40 0.6 °C -0.1 °C 1022.2 hPa WSW 3.4 km/h 12.9 km/h 95% 0.0 mm 0 W/m2
02:45 0.6 °C -0.1 °C 1022.2 hPa West 2.6 km/h 8.0 km/h 95% 0.0 mm 0 W/m2
02:50 0.6 °C -0.1 °C 1022.2 hPa SW 3.2 km/h 16.1 km/h 95% 0.0 mm 0 W/m2
02:55 0.6 °C -0.1 °C 1022.2 hPa WSW 3.1 km/h 9.7 km/h 95% 0.0 mm 0 W/m2
03:00 0.7 °C 0.0 °C 1022.2 hPa West 3.1 km/h 8.0 km/h 95% 0.0 mm 0 W/m2
03:05 0.7 °C 0.0 °C 1022.2 hPa WSW 2.6 km/h 9.7 km/h 95% 0.0 mm 0 W/m2
03:10 0.7 °C 0.0 °C 1022.2 hPa SW 3.5 km/h 11.3 km/h 95% 0.0 mm 0 W/m2
03:15 0.7 °C 0.0 °C 1022.2 hPa West 4.5 km/h 17.7 km/h 95% 0.0 mm 0 W/m2
03:20 0.7 °C 0.0 °C 1022.2 hPa WSW 3.9 km/h 11.3 km/h 95% 0.0 mm 0 W/m2
03:25 0.7 °C 0.0 °C 1022.2 hPa SSW 4.3 km/h 11.3 km/h 95% 0.0 mm 0 W/m2
03:30 0.7 °C 0.0 °C 1022.2 hPa SW 4.5 km/h 11.3 km/h 95% 0.0 mm 0 W/m2
03:35 0.8 °C 0.1 °C 1022.2 hPa SSW 3.4 km/h 11.3 km/h 95% 0.0 mm 0 W/m2
03:40 0.8 °C 0.1 °C 1022.2 hPa SW 3.2 km/h 9.7 km/h 95% 0.0 mm 0 W/m2
03:45 0.8 °C 0.1 °C 1022.2 hPa South 4.8 km/h 14.5 km/h 95% 0.0 mm 0 W/m2
03:50 0.8 °C 0.1 °C 1022.2 hPa SW 4.2 km/h 11.3 km/h 95% 0.0 mm 0 W/m2
03:55 0.7 °C 0.0 °C 1022.2 hPa SW 3.9 km/h 14.5 km/h 95% 0.0 mm 0 W/m2
04:00 0.7 °C 0.0 °C 1022.2 hPa SSW 3.9 km/h 14.5 km/h 95% 0.0 mm 0 W/m2
04:05 0.8 °C 0.1 °C 1022.2 hPa SW 2.6 km/h 12.9 km/h 95% 0.0 mm 0 W/m2
04:10 0.7 °C 0.0 °C 1022.2 hPa SW 4.3 km/h 11.3 km/h 95% 0.0 mm 0 W/m2
04:15 0.8 °C 0.1 °C 1022.6 hPa SW 3.1 km/h 11.3 km/h 95% 0.0 mm 0 W/m2
04:20 0.8 °C 0.1 °C 1022.6 hPa WNW 2.7 km/h 11.3 km/h 95% 0.0 mm 0 W/m2
04:30 0.8 °C 0.1 °C 1022.6 hPa WSW 1.8 km/h 9.7 km/h 95% 0.0 mm 0 W/m2
04:40 0.8 °C 0.1 °C 1022.9 hPa SSW 1.4 km/h 9.7 km/h 95% 0.0 mm 0 W/m2
04:45 0.8 °C 0.1 °C 1022.9 hPa West 0.6 km/h 6.4 km/h 95% 0.0 mm 0 W/m2
04:50 0.8 °C 0.1 °C 1022.9 hPa WSW 1.1 km/h 6.4 km/h 95% 0.0 mm 0 W/m2
04:55 0.8 °C 0.1 °C 1022.9 hPa SSW 1.1 km/h 8.0 km/h 95% 0.0 mm 0 W/m2
05:00 0.8 °C 0.1 °C 1022.9 hPa WSW 4.0 km/h 12.9 km/h 95% 0.0 mm 0 W/m2
05:05 0.8 °C 0.1 °C 1022.9 hPa WSW 4.0 km/h 12.9 km/h 95% 0.0 mm 0 W/m2
05:10 0.8 °C 0.1 °C 1023.2 hPa WSW 2.7 km/h 11.3 km/h 95% 0.0 mm 0 W/m2
05:15 0.9 °C 0.2 °C 1023.2 hPa WSW 1.0 km/h 6.4 km/h 95% 0.0 mm 0 W/m2
05:20 0.9 °C 0.2 °C 1023.2 hPa SSW 1.3 km/h 6.4 km/h 95% 0.0 mm 0 W/m2
05:25 0.9 °C 0.2 °C 1023.2 hPa WSW 0.8 km/h 4.8 km/h 95% 0.0 mm 0 W/m2
05:30 0.9 °C 0.2 °C 1023.2 hPa WSW 0.5 km/h 4.8 km/h 95% 0.0 mm 0 W/m2
05:35 0.9 °C 0.2 °C 1023.2 hPa WSW 1.9 km/h 8.0 km/h 95% 0.0 mm 0 W/m2
05:40 0.9 °C 0.2 °C 1023.2 hPa WSW 1.4 km/h 4.8 km/h 95% 0.0 mm 0 W/m2
05:45 0.9 °C 0.2 °C 1023.2 hPa WSW 1.4 km/h 4.8 km/h 95% 0.0 mm 0 W/m2
05:50 0.9 °C 0.2 °C 1023.2 hPa Calm   1.6 km/h 95% 0.0 mm 0 W/m2
05:55 0.9 °C 0.2 °C 1023.2 hPa SW 0.3 km/h 4.8 km/h 95% 0.0 mm 0 W/m2
06:00 0.8 °C 0.1 °C 1023.2 hPa SW 0.2 km/h 3.2 km/h 95% 0.0 mm 0 W/m2
06:05 0.8 °C 0.1 °C 1023.2 hPa SW 0.3 km/h 3.2 km/h 95% 0.0 mm 0 W/m2
06:10 0.8 °C 0.1 °C 1023.2 hPa Calm     95% 0.0 mm 0 W/m2
06:15 0.7 °C 0.0 °C 1023.2 hPa SW 0.2 km/h 1.6 km/h 95% 0.0 mm 0 W/m2
06:20 0.6 °C -0.1 °C 1023.2 hPa Calm     95% 0.0 mm 0 W/m2
06:25 0.6 °C -0.1 °C 1023.2 hPa Calm     95% 0.0 mm 0 W/m2
06:30 0.5 °C -0.2 °C 1023.2 hPa Calm     95% 0.0 mm 0 W/m2
06:35 0.4 °C -0.4 °C 1023.2 hPa Calm     94% 0.0 mm 0 W/m2
06:40 0.3 °C -0.4 °C 1023.2 hPa Calm   1.6 km/h 95% 0.0 mm 0 W/m2
06:45 0.2 °C -0.5 °C 1023.6 hPa SW 0.2 km/h 1.6 km/h 95% 0.0 mm 0 W/m2
06:50 0.2 °C -0.7 °C 1023.6 hPa Calm     94% 0.0 mm 0 W/m2
06:55 0.1 °C -0.7 °C 1023.6 hPa Calm     94% 0.0 mm 0 W/m2
07:00 -0.1 °C -0.9 °C 1023.6 hPa SW 0.3 km/h 4.8 km/h 94% 0.0 mm 0 W/m2
07:05 -0.2 °C -1.1 °C 1023.2 hPa SW 0.3 km/h 3.2 km/h 94% 0.0 mm 0 W/m2
07:10 -0.2 °C -1.1 °C 1023.6 hPa SW 1.9 km/h 6.4 km/h 94% 0.0 mm 0 W/m2
07:15 -0.3 °C -1.2 °C 1023.6 hPa SW 0.5 km/h 3.2 km/h 94% 0.0 mm 0 W/m2
07:20 -0.4 °C -1.2 °C 1023.6 hPa SSW 2.3 km/h 6.4 km/h 94% 0.0 mm 0 W/m2
07:25 -0.5 °C -1.3 °C 1023.6 hPa SSW 0.3 km/h 3.2 km/h 94% 0.0 mm 0 W/m2
07:30 -0.6 °C -1.4 °C 1023.6 hPa Calm     94% 0.0 mm 0 W/m2
07:35 -0.6 °C -1.3 °C 1023.9 hPa Calm     95% 0.0 mm 0 W/m2
07:45 -0.7 °C -1.4 °C 1023.9 hPa Calm     95% 0.0 mm 0 W/m2
07:50 -0.7 °C -1.4 °C 1023.9 hPa Calm     95% 0.0 mm 0 W/m2
07:55 -0.7 °C -1.4 °C 1023.9 hPa West 0.2 km/h 3.2 km/h 95% 0.0 mm 0 W/m2
08:00 -0.7 °C -1.4 °C 1023.9 hPa West 0.2 km/h 3.2 km/h 95% 0.0 mm 0 W/m2
08:05 -0.7 °C -1.4 °C 1023.9 hPa SSW 0.2 km/h 3.2 km/h 95% 0.0 mm 5 W/m2
08:10 -0.8 °C -1.5 °C 1023.6 hPa Calm   3.2 km/h 95% 0.0 mm 9 W/m2
08:20 -0.7 °C -1.4 °C 1023.9 hPa SSW 0.5 km/h 4.8 km/h 95% 0.0 mm 14 W/m2
08:25 -0.7 °C -1.4 °C 1023.9 hPa WSW 1.1 km/h 6.4 km/h 95% 0.0 mm 16 W/m2
08:30 -0.7 °C -1.4 °C 1023.9 hPa SW 1.1 km/h 6.4 km/h 95% 0.0 mm 25 W/m2
08:40 -0.7 °C -1.4 °C 1023.9 hPa West 2.3 km/h 6.4 km/h 95% 0.0 mm 32 W/m2
08:45 -0.6 °C -1.3 °C 1023.9 hPa SSW 0.6 km/h 4.8 km/h 95% 0.0 mm 42 W/m2
08:50 -0.5 °C -1.2 °C 1023.9 hPa SW 0.3 km/h 3.2 km/h 95% 0.0 mm 60 W/m2
08:55 -0.4 °C -1.1 °C 1023.9 hPa South 0.3 km/h 6.4 km/h 95% 0.0 mm 70 W/m2
09:00 -0.4 °C -1.1 °C 1024.3 hPa SW 2.4 km/h 9.7 km/h 95% 0.0 mm 79 W/m2
09:05 -0.3 °C -1.0 °C 1024.3 hPa WSW 1.3 km/h 4.8 km/h 95% 0.0 mm 74 W/m2
09:10 -0.2 °C -0.9 °C 1024.3 hPa WSW 2.6 km/h 8.0 km/h 95% 0.0 mm 77 W/m2
09:15 -0.1 °C -0.8 °C 1024.3 hPa South 2.3 km/h 11.3 km/h 95% 0.0 mm 84 W/m2
09:20 -0.1 °C -0.7 °C 1024.3 hPa SW 2.3 km/h 9.7 km/h 96% 0.0 mm 88 W/m2
09:25 0.0 °C -0.7 °C 1024.3 hPa SW 4.7 km/h 12.9 km/h 95% 0.0 mm 84 W/m2
09:30 0.1 °C -0.6 °C 1024.3 hPa SSW 2.3 km/h 11.3 km/h 95% 0.0 mm 84 W/m2
09:35 0.1 °C -0.6 °C 1024.3 hPa SW 1.1 km/h 6.4 km/h 95% 0.0 mm 100 W/m2
09:40 0.2 °C -0.5 °C 1024.3 hPa SW 2.3 km/h 8.0 km/h 95% 0.0 mm 135 W/m2
09:45 0.2 °C -0.3 °C 1024.3 hPa SSW 2.9 km/h 11.3 km/h 96% 0.0 mm 148 W/m2
09:50 0.3 °C -0.4 °C 1024.3 hPa SSW 1.8 km/h 9.7 km/h 95% 0.0 mm 116 W/m2
09:55 0.4 °C -0.3 °C 1024.3 hPa SSW 3.4 km/h 9.7 km/h 95% 0.0 mm 113 W/m2
10:00 0.4 °C -0.3 °C 1024.6 hPa WNW 3.5 km/h 8.0 km/h 95% 0.0 mm 113 W/m2
10:05 0.4 °C -0.3 °C 1024.6 hPa WNW 3.5 km/h 8.0 km/h 95% 0.0 mm 113 W/m2
10:10 0.6 °C -0.1 °C 1024.3 hPa SW 3.1 km/h 11.3 km/h 95% 0.0 mm 139 W/m2
10:15 0.6 °C -0.1 °C 1024.3 hPa SW 3.1 km/h 11.3 km/h 95% 0.0 mm 139 W/m2
10:20 0.8 °C 0.1 °C 1024.6 hPa SW 2.6 km/h 8.0 km/h 95% 0.0 mm 139 W/m2
10:25 0.8 °C 0.1 °C 1024.6 hPa SSW 2.6 km/h 11.3 km/h 95% 0.0 mm 134 W/m2
10:30 0.9 °C 0.2 °C 1024.6 hPa SW 1.9 km/h 8.0 km/h 95% 0.0 mm 132 W/m2
10:35 1.0 °C 0.3 °C 1024.6 hPa WSW 2.4 km/h 8.0 km/h 95% 0.0 mm 139 W/m2
10:40 1.0 °C 0.2 °C 1024.6 hPa WSW 4.3 km/h 11.3 km/h 94% 0.0 mm 141 W/m2
10:45 1.1 °C 0.2 °C 1024.6 hPa East 2.7 km/h 8.0 km/h 94% 0.0 mm 158 W/m2
10:50 1.1 °C 0.1 °C 1024.9 hPa South 3.9 km/h 9.7 km/h 93% 0.0 mm 171 W/m2
10:55 1.2 °C 0.1 °C 1024.9 hPa SSW 2.3 km/h 9.7 km/h 92% 0.3 mm 165 W/m2
11:00 1.2 °C 0.1 °C 1024.9 hPa WSW 2.1 km/h 11.3 km/h 92% 0.3 mm 167 W/m2
11:10 1.2 °C -0.1 °C 1024.9 hPa SW 2.7 km/h 9.7 km/h 91% 0.5 mm 135 W/m2
11:15 1.2 °C -0.1 °C 1024.9 hPa SSW 3.9 km/h 9.7 km/h 91% 0.5 mm 120 W/m2
11:20 1.1 °C -0.2 °C 1025.3 hPa WSW 2.6 km/h 9.7 km/h 91% 0.5 mm 155 W/m2
11:25 1.2 °C -0.1 °C 1024.9 hPa South 3.5 km/h 11.3 km/h 91% 0.5 mm 135 W/m2
11:30 1.1 °C -0.2 °C 1024.9 hPa WSW 3.5 km/h 11.3 km/h 91% 0.5 mm 125 W/m2
11:35 1.1 °C -0.2 °C 1024.9 hPa WSW 4.8 km/h 9.7 km/h 91% 0.8 mm 127 W/m2
11:40 1.0 °C -0.3 °C 1024.9 hPa WSW 1.4 km/h 9.7 km/h 91% 0.8 mm 144 W/m2
11:45 1.1 °C -0.2 °C 1024.9 hPa SSW 3.4 km/h 8.0 km/h 91% 0.8 mm 160 W/m2
11:50 1.2 °C -0.1 °C 1024.9 hPa SW 2.6 km/h 8.0 km/h 91% 0.8 mm 185 W/m2
11:55 1.4 °C 0.1 °C 1024.9 hPa SSW 2.7 km/h 9.7 km/h 91% 0.8 mm 229 W/m2
12:00 1.5 °C 0.1 °C 1024.6 hPa SSW 2.3 km/h 9.7 km/h 90% 0.8 mm 146 W/m2
12:05 1.5 °C 0.1 °C 1024.6 hPa SSW 2.3 km/h 9.7 km/h 90% 0.8 mm 105 W/m2
12:15 1.6 °C 0.2 °C 1024.6 hPa South 1.1 km/h 8.0 km/h 90% 0.5 mm 202 W/m2
12:20 1.7 °C 0.1 °C 1024.6 hPa WSW 2.7 km/h 8.0 km/h 89% 0.5 mm 213 W/m2
12:25 1.7 °C 0.1 °C 1024.6 hPa WSW 2.7 km/h 8.0 km/h 89% 0.5 mm 213 W/m2
12:35 1.9 °C 0.1 °C 1024.6 hPa SW 1.0 km/h 8.0 km/h 88% 0.5 mm 204 W/m2
12:40 2.1 °C 0.3 °C 1024.6 hPa SW 2.4 km/h 8.0 km/h 88% 0.5 mm 292 W/m2
12:45 2.0 °C 0.1 °C 1024.6 hPa SSW 3.5 km/h 11.3 km/h 87% 0.5 mm 213 W/m2
12:50 2.0 °C 0.1 °C 1024.6 hPa SSW 2.6 km/h 11.3 km/h 87% 0.5 mm 200 W/m2
12:55 2.1 °C 0.2 °C 1024.6 hPa WSW 2.1 km/h 9.2 km/h 87% 0.5 mm 271 W/m2
13:00 2.1 °C 0.2 °C 1024.6 hPa WSW 2.1 km/h 8.0 km/h 87% 0.5 mm 271 W/m2
13:05 2.1 °C 0.2 °C 1024.6 hPa SW 3.5 km/h 9.7 km/h 87% 0.5 mm 218 W/m2
13:10 2.1 °C 0.3 °C 1024.6 hPa SW 2.6 km/h 9.7 km/h 88% 0.8 mm 366 W/m2
13:15 2.2 °C 0.3 °C 1024.6 hPa WNW 3.4 km/h 12.9 km/h 87% 0.5 mm 125 W/m2
13:20 2.1 °C 0.2 °C 1024.6 hPa SSW 2.4 km/h 9.7 km/h 87% 0.5 mm 179 W/m2
13:25 2.1 °C 0.2 °C 1024.6 hPa SSW 2.4 km/h 9.7 km/h 87% 0.5 mm 179 W/m2
13:30 2.0 °C 0.1 °C 1024.6 hPa SW 1.3 km/h 8.0 km/h 87% 0.8 mm 155 W/m2
13:35 2.0 °C 0.1 °C 1024.6 hPa SSW 2.7 km/h 11.3 km/h 87% 0.5 mm 160 W/m2
13:40 2.1 °C 0.2 °C 1024.3 hPa WSW 3.2 km/h 11.3 km/h 87% 0.5 mm 295 W/m2
13:45 2.3 °C 0.5 °C 1024.3 hPa WSW 0.2 km/h 3.2 km/h 87% 0.5 mm 195 W/m2
13:50 2.3 °C 0.4 °C 1024.3 hPa SSW 3.5 km/h 12.9 km/h 87% 0.8 mm 188 W/m2
13:55 2.3 °C 0.4 °C 1024.3 hPa WSW 2.6 km/h 9.7 km/h 87% 0.5 mm 308 W/m2
14:00 2.5 °C 0.6 °C 1024.3 hPa SSE 2.4 km/h 9.7 km/h 87% 0.8 mm 269 W/m2
14:05 2.6 °C 0.5 °C 1024.3 hPa WSW 3.1 km/h 9.7 km/h 86% 0.8 mm 181 W/m2
14:15 2.4 °C 0.3 °C 1024.3 hPa WSW 2.1 km/h 8.0 km/h 86% 0.8 mm 156 W/m2
14:20 2.3 °C 0.4 °C 1023.9 hPa SW 1.0 km/h 6.4 km/h 87% 1.0 mm 158 W/m2
14:25 2.3 °C 0.4 °C 1023.9 hPa West 1.6 km/h 6.4 km/h 87% 1.0 mm 160 W/m2
14:30 2.3 °C 0.2 °C 1024.3 hPa WSW 1.3 km/h 6.4 km/h 86% 1.0 mm 149 W/m2
14:35 2.3 °C 0.4 °C 1023.9 hPa SW 3.1 km/h 9.7 km/h 87% 1.3 mm 146 W/m2
14:40 2.3 °C 0.4 °C 1023.9 hPa SW 1.4 km/h 9.7 km/h 87% 1.3 mm 142 W/m2
14:45 2.3 °C 0.4 °C 1023.9 hPa South 1.8 km/h 8.0 km/h 87% 1.3 mm 127 W/m2
14:55 2.3 °C 0.2 °C 1023.9 hPa West 1.9 km/h 8.0 km/h 86% 1.3 mm 151 W/m2
15:00 2.4 °C 0.3 °C 1023.9 hPa South 2.7 km/h 9.7 km/h 86% 1.3 mm 114 W/m2
15:10 2.3 °C 0.2 °C 1023.9 hPa SW 1.0 km/h 8.0 km/h 86% 1.3 mm 93 W/m2
15:15 2.3 °C 0.2 °C 1023.9 hPa WSW 2.7 km/h 11.3 km/h 86% 1.3 mm 111 W/m2
15:20 2.3 °C 0.2 °C 1023.9 hPa SW 1.8 km/h 6.4 km/h 86% 1.3 mm 102 W/m2
15:25 2.3 °C 0.2 °C 1023.9 hPa SW 1.4 km/h 9.7 km/h 86% 1.0 mm 98 W/m2
15:35 2.2 °C 0.1 °C 1023.9 hPa WSW 1.4 km/h 9.7 km/h 86% 0.8 mm 84 W/m2
15:40 2.2 °C 0.1 °C 1023.6 hPa SSW 2.3 km/h 9.7 km/h 86% 1.0 mm 102 W/m2
15:45 2.2 °C 0.1 °C 1023.9 hPa WSW 1.9 km/h 9.7 km/h 86% 0.8 mm 102 W/m2
15:50 2.2 °C 0.1 °C 1023.9 hPa West 2.9 km/h 12.9 km/h 86% 0.8 mm 95 W/m2
15:55 2.2 °C 0.1 °C 1023.9 hPa SW 3.1 km/h 9.7 km/h 86% 0.5 mm 84 W/m2
16:00 2.2 °C 0.1 °C 1023.6 hPa WSW 2.7 km/h 9.7 km/h 86% 0.8 mm 62 W/m2
16:05 2.2 °C 0.1 °C 1023.6 hPa WSW 2.7 km/h 9.7 km/h 86% 0.8 mm 62 W/m2
16:10 2.2 °C 0.1 °C 1023.6 hPa SW 2.4 km/h 8.0 km/h 86% 0.5 mm 49 W/m2
16:15 2.2 °C 0.1 °C 1023.9 hPa South 1.8 km/h 6.4 km/h 86% 0.5 mm 47 W/m2
16:20 2.1 °C 0.0 °C 1023.9 hPa WSW 1.8 km/h 9.7 km/h 86% 0.5 mm 35 W/m2
16:25 2.1 °C 0.0 °C 1023.9 hPa West 1.1 km/h 6.4 km/h 86% 0.5 mm 35 W/m2
16:30 2.0 °C -0.1 °C 1023.9 hPa SW 1.3 km/h 6.4 km/h 86% 0.5 mm 44 W/m2
16:35 1.9 °C -0.1 °C 1023.9 hPa SW 0.5 km/h 4.8 km/h 87% 0.5 mm 37 W/m2
16:40 1.9 °C -0.1 °C 1023.9 hPa WSW 0.8 km/h 4.8 km/h 87% 0.5 mm 32 W/m2
16:45 1.8 °C -0.1 °C 1023.9 hPa WSW 1.3 km/h 8.0 km/h 87% 0.5 mm 25 W/m2
16:50 1.7 °C -0.2 °C 1023.9 hPa SW 1.3 km/h 6.4 km/h 87% 0.5 mm 23 W/m2
16:55 1.7 °C -0.2 °C 1023.9 hPa SW 0.6 km/h 4.8 km/h 87% 0.5 mm 25 W/m2
17:00 1.6 °C -0.3 °C 1023.9 hPa SW 0.8 km/h 6.4 km/h 87% 0.3 mm 23 W/m2
17:10 1.4 °C -0.4 °C 1023.9 hPa South 2.4 km/h 11.3 km/h 88% 0.3 mm 7 W/m2
17:15 1.4 °C -0.4 °C 1023.9 hPa SW 1.9 km/h 6.4 km/h 88% 0.3 mm 0 W/m2
17:20 1.3 °C -0.3 °C 1023.9 hPa WSW 1.6 km/h 9.7 km/h 89% 0.3 mm 0 W/m2
17:25 1.3 °C -0.3 °C 1023.9 hPa WSW 1.8 km/h 9.7 km/h 89% 0.3 mm 0 W/m2
17:35 1.3 °C -0.3 °C 1024.3 hPa SSW 3.9 km/h 16.1 km/h 89% 0.0 mm 0 W/m2
17:40 1.3 °C -0.2 °C 1024.3 hPa WSW 1.9 km/h 11.3 km/h 90% 0.0 mm 0 W/m2
17:45 1.2 °C -0.3 °C 1024.3 hPa WSW 2.4 km/h 11.3 km/h 90% 0.0 mm 0 W/m2
Tägerwilen, Thurgau, Switzerland
Compliments of Weather Underground